Time;durP1;ratioP1;P1;durP2;ratioP2;P2;SDS_P1;SDS_P2;PMS_P1;PMS_P2;Temp;Humidity;BMP_temperature;BMP_pressure;BME280_temperature;BME280_humidity;BME280_pressure;Samples;Min_cycle;Max_cycle;Signal;HPM_P1;HPM_P2
2021/10/03 00:01:37;;;;;;;17.25;11.48;;;;;;;;;;4993186;28;20022;-56
2021/10/03 00:04:03;;;;;;;16.98;11.73;;;;;;;;;;4991808;28;20018;-56
2021/10/03 00:06:28;;;;;;;15.75;11.07;;;;;;;;;;4998748;28;20033;-56
2021/10/03 00:08:54;;;;;;;15.23;10.95;;;;;;;;;;4985175;28;20029;-57
2021/10/03 00:11:20;;;;;;;14.98;11.07;;;;;;;;;;5000559;28;20049;-56
2021/10/03 00:13:46;;;;;;;15.40;11.93;;;;;;;;;;4997460;28;20018;-56
2021/10/03 00:16:12;;;;;;;14.02;11.88;;;;;;;;;;4990349;28;20080;-57
2021/10/03 00:18:37;;;;;;;16.63;11.95;;;;;;;;;;4993816;28;20033;-56
2021/10/03 00:21:03;;;;;;;15.95;11.85;;;;;;;;;;4997005;28;20026;-57
2021/10/03 00:23:30;;;;;;;13.95;11.30;;;;;;;;;;5001216;28;20022;-56
2021/10/03 00:25:55;;;;;;;15.95;11.50;;;;;;;;;;4985542;28;20026;-56
2021/10/03 00:28:21;;;;;;;14.70;11.35;;;;;;;;;;4994154;28;20578;-56
2021/10/03 00:30:46;;;;;;;15.40;12.00;;;;;;;;;;5001904;28;20244;-56
2021/10/03 00:33:11;;;;;;;15.65;11.65;;;;;;;;;;4999097;28;20081;-57
2021/10/03 00:35:37;;;;;;;14.07;11.63;;;;;;;;;;4997489;28;20100;-56
2021/10/03 00:38:04;;;;;;;17.73;11.43;;;;;;;;;;4999597;28;20512;-57
2021/10/03 00:40:31;;;;;;;15.20;10.98;;;;;;;;;;4995957;28;20038;-57
2021/10/03 00:42:56;;;;;;;14.70;10.77;;;;;;;;;;4992397;28;20294;-55
2021/10/03 00:45:22;;;;;;;13.27;10.55;;;;;;;;;;4993538;28;20800;-56
2021/10/03 00:47:47;;;;;;;13.35;10.30;;;;;;;;;;5002265;28;20026;-56
2021/10/03 00:50:13;;;;;;;14.60;10.90;;;;;;;;;;4993554;28;20443;-55
2021/10/03 00:52:40;;;;;;;15.75;10.73;;;;;;;;;;4997940;28;20028;-56
2021/10/03 00:55:05;;;;;;;13.15;10.43;;;;;;;;;;5001826;28;20168;-57
2021/10/03 00:57:30;;;;;;;13.68;10.18;;;;;;;;;;5011033;28;20112;-56
2021/10/03 00:59:56;;;;;;;13.82;10.82;;;;;;;;;;4997314;28;20060;-56
2021/10/03 01:02:21;;;;;;;15.32;10.23;;;;;;;;;;4993806;28;20067;-55
2021/10/03 01:04:47;;;;;;;16.00;11.10;;;;;;;;;;5002385;28;20105;-57
2021/10/03 01:07:12;;;;;;;17.88;12.13;;;;;;;;;;4997532;28;20355;-55
2021/10/03 01:09:37;;;;;;;15.60;11.60;;;;;;;;;;4994686;28;20113;-56
2021/10/03 01:12:03;;;;;;;17.93;11.33;;;;;;;;;;4995288;28;20056;-57
2021/10/03 01:14:28;;;;;;;15.90;11.65;;;;;;;;;;4997423;28;20277;-55
2021/10/03 01:16:53;;;;;;;16.13;10.70;;;;;;;;;;4995865;28;20026;-57
2021/10/03 01:19:20;;;;;;;14.37;9.63;;;;;;;;;;4996560;28;20167;-56
2021/10/03 01:21:46;;;;;;;13.75;10.30;;;;;;;;;;4998157;28;20257;-56
2021/10/03 01:24:11;;;;;;;16.42;10.60;;;;;;;;;;4989656;28;20431;-57
2021/10/03 01:26:37;;;;;;;13.55;10.73;;;;;;;;;;4998454;28;20515;-55
2021/10/03 01:29:02;;;;;;;16.58;11.38;;;;;;;;;;4986018;28;20025;-56
2021/10/03 01:31:29;;;;;;;18.08;10.68;;;;;;;;;;5000538;28;20028;-57
2021/10/03 01:33:55;;;;;;;16.15;10.88;;;;;;;;;;4989661;28;20069;-56
2021/10/03 01:36:20;;;;;;;15.77;11.32;;;;;;;;;;4992109;28;20109;-56
2021/10/03 01:38:46;;;;;;;16.13;11.48;;;;;;;;;;4999419;28;20030;-56
2021/10/03 01:41:12;;;;;;;17.38;10.93;;;;;;;;;;5015486;28;20083;-58
2021/10/03 01:43:37;;;;;;;16.57;11.10;;;;;;;;;;4996147;28;20124;-56
2021/10/03 01:46:02;;;;;;;13.32;10.40;;;;;;;;;;4999551;28;20116;-56
2021/10/03 01:48:28;;;;;;;18.58;11.27;;;;;;;;;;4995728;28;20551;-56
2021/10/03 01:50:55;;;;;;;15.25;11.57;;;;;;;;;;4996841;28;20109;-55
2021/10/03 01:53:29;;;;;;;16.02;11.00;;;;;;;;;;4992392;28;20101;-57
2021/10/03 01:55:55;;;;;;;14.85;10.70;;;;;;;;;;4997541;28;20022;-57
2021/10/03 01:58:22;;;;;;;15.70;10.68;;;;;;;;;;4999331;28;20026;-56
2021/10/03 02:00:51;;;;;;;15.90;11.63;;;;;;;;;;4998786;28;20744;-56
2021/10/03 02:03:16;;;;;;;15.23;10.82;;;;;;;;;;4995057;28;20027;-56
2021/10/03 02:05:43;;;;;;;16.88;11.48;;;;;;;;;;4992411;28;20527;-56
2021/10/03 02:08:09;;;;;;;14.70;10.50;;;;;;;;;;4997147;28;20037;-55
2021/10/03 02:10:36;;;;;;;15.30;11.23;;;;;;;;;;4995456;28;20623;-56
2021/10/03 02:13:01;;;;;;;15.07;11.35;;;;;;;;;;4999492;28;20476;-55
2021/10/03 02:15:26;;;;;;;15.02;11.13;;;;;;;;;;4999121;28;20019;-56
2021/10/03 02:17:52;;;;;;;15.73;11.57;;;;;;;;;;5003383;28;20115;-55
2021/10/03 02:20:18;;;;;;;13.80;11.17;;;;;;;;;;5000493;28;20854;-56
2021/10/03 02:22:43;;;;;;;15.30;11.60;;;;;;;;;;4993857;28;20366;-57
2021/10/03 02:25:09;;;;;;;15.65;11.18;;;;;;;;;;5003349;28;20072;-56
2021/10/03 02:27:35;;;;;;;15.73;11.65;;;;;;;;;;5001426;28;20037;-56
2021/10/03 02:30:01;;;;;;;16.63;11.40;;;;;;;;;;4994412;28;20029;-57
2021/10/03 02:32:26;;;;;;;15.13;11.43;;;;;;;;;;5007869;28;20710;-56
2021/10/03 02:34:52;;;;;;;14.02;11.02;;;;;;;;;;4993654;28;20032;-56
2021/10/03 02:37:17;;;;;;;13.07;10.68;;;;;;;;;;4989723;28;20119;-56
2021/10/03 02:39:42;;;;;;;15.70;10.73;;;;;;;;;;5003457;28;20052;-56
2021/10/03 02:42:08;;;;;;;14.23;11.13;;;;;;;;;;5003781;28;20049;-56
2021/10/03 02:44:33;;;;;;;17.13;11.20;;;;;;;;;;4998560;28;20036;-56
2021/10/03 02:46:58;;;;;;;15.63;11.48;;;;;;;;;;4993801;28;20038;-56
2021/10/03 02:49:24;;;;;;;14.90;11.03;;;;;;;;;;4996841;28;20477;-56
2021/10/03 02:51:50;;;;;;;15.93;10.60;;;;;;;;;;4997822;28;20316;-57
2021/10/03 02:54:15;;;;;;;15.55;11.35;;;;;;;;;;5000331;28;20772;-57
2021/10/03 02:56:41;;;;;;;17.40;11.50;;;;;;;;;;4995284;28;20041;-57
2021/10/03 02:59:06;;;;;;;17.30;10.97;;;;;;;;;;5001478;28;20261;-56
2021/10/03 03:01:31;;;;;;;16.38;10.98;;;;;;;;;;4996837;28;20272;-56
2021/10/03 03:03:56;;;;;;;13.80;10.60;;;;;;;;;;5002744;28;20385;-56
2021/10/03 03:06:22;;;;;;;15.43;11.17;;;;;;;;;;5000554;28;20297;-56
2021/10/03 03:08:47;;;;;;;16.08;11.00;;;;;;;;;;4997725;28;20265;-56
2021/10/03 03:11:12;;;;;;;14.48;10.48;;;;;;;;;;5000355;28;20015;-56
2021/10/03 03:13:39;;;;;;;16.05;11.13;;;;;;;;;;4992790;28;20665;-56
2021/10/03 03:16:04;;;;;;;16.27;12.38;;;;;;;;;;4994641;28;20026;-56
2021/10/03 03:18:30;;;;;;;18.25;12.75;;;;;;;;;;4998502;28;20033;-56
2021/10/03 03:20:55;;;;;;;17.52;12.95;;;;;;;;;;5001063;28;20018;-56
2021/10/03 03:23:20;;;;;;;18.37;13.70;;;;;;;;;;4999846;28;20034;-56
2021/10/03 03:25:46;;;;;;;19.30;14.43;;;;;;;;;;5000973;28;20756;-57
2021/10/03 03:28:11;;;;;;;19.27;14.38;;;;;;;;;;4997436;28;20096;-56
2021/10/03 03:30:37;;;;;;;22.65;14.20;;;;;;;;;;5002267;28;20081;-56
2021/10/03 03:33:03;;;;;;;18.60;12.77;;;;;;;;;;4991916;28;20025;-56
2021/10/03 03:35:28;;;;;;;18.05;12.40;;;;;;;;;;5001819;28;20030;-56
2021/10/03 03:37:53;;;;;;;15.73;12.38;;;;;;;;;;4988877;28;20045;-56
2021/10/03 03:40:20;;;;;;;17.27;12.03;;;;;;;;;;4999331;28;20022;-56
2021/10/03 03:42:46;;;;;;;15.88;11.63;;;;;;;;;;5003880;28;20257;-56
2021/10/03 03:45:11;;;;;;;16.27;11.90;;;;;;;;;;4995397;28;20446;-56
2021/10/03 03:47:37;;;;;;;16.15;11.20;;;;;;;;;;4990277;28;20032;-57
2021/10/03 03:50:03;;;;;;;16.80;11.60;;;;;;;;;;4995975;28;20481;-56
2021/10/03 03:52:28;;;;;;;16.85;11.10;;;;;;;;;;4998578;28;20029;-57
2021/10/03 03:54:53;;;;;;;17.98;11.45;;;;;;;;;;5002349;28;20022;-56
2021/10/03 03:57:18;;;;;;;16.27;11.98;;;;;;;;;;5000611;28;20140;-57
2021/10/03 03:59:44;;;;;;;18.80;11.57;;;;;;;;;;4995959;28;20512;-56
2021/10/03 04:02:09;;;;;;;17.15;11.95;;;;;;;;;;4995769;28;21006;-57
2021/10/03 04:04:35;;;;;;;14.17;11.53;;;;;;;;;;4999083;28;20473;-56
2021/10/03 04:07:00;;;;;;;15.80;11.30;;;;;;;;;;4995721;28;20284;-55
2021/10/03 04:09:25;;;;;;;17.27;11.50;;;;;;;;;;5001432;28;20025;-57
2021/10/03 04:11:50;;;;;;;14.67;10.73;;;;;;;;;;5000987;28;20018;-57
2021/10/03 04:14:15;;;;;;;15.73;11.33;;;;;;;;;;4993134;28;20070;-55
2021/10/03 04:16:41;;;;;;;15.23;10.83;;;;;;;;;;4999850;28;20269;-57
2021/10/03 04:19:06;;;;;;;16.23;11.27;;;;;;;;;;4998308;28;20759;-56
2021/10/03 04:21:31;;;;;;;17.50;11.17;;;;;;;;;;4995636;28;20373;-56
2021/10/03 04:23:56;;;;;;;16.33;10.80;;;;;;;;;;4998865;28;20261;-56
2021/10/03 04:26:22;;;;;;;15.68;10.95;;;;;;;;;;4997741;28;20489;-56
2021/10/03 04:28:47;;;;;;;17.25;11.25;;;;;;;;;;4998304;28;20026;-56
2021/10/03 04:31:12;;;;;;;15.27;10.77;;;;;;;;;;5002002;28;20032;-57
2021/10/03 04:33:41;;;;;;;15.65;11.23;;;;;;;;;;4995753;28;20348;-55
2021/10/03 04:36:07;;;;;;;17.20;11.35;;;;;;;;;;4994961;28;20022;-57
2021/10/03 04:38:32;;;;;;;15.52;11.65;;;;;;;;;;5001719;28;20680;-57
2021/10/03 04:40:57;;;;;;;18.23;12.13;;;;;;;;;;5002226;28;20342;-56
2021/10/03 04:43:22;;;;;;;19.20;12.03;;;;;;;;;;5000521;28;20439;-57
2021/10/03 04:45:48;;;;;;;18.98;12.10;;;;;;;;;;4999449;28;20299;-57
2021/10/03 04:48:13;;;;;;;19.87;12.40;;;;;;;;;;4990563;28;20136;-59
2021/10/03 04:50:38;;;;;;;19.35;12.30;;;;;;;;;;5001295;28;20272;-57
2021/10/03 04:53:03;;;;;;;18.23;12.80;;;;;;;;;;4996990;28;20014;-57
2021/10/03 04:55:29;;;;;;;18.08;12.65;;;;;;;;;;4982661;28;23063;-57
2021/10/03 04:57:54;;;;;;;19.70;13.13;;;;;;;;;;5000370;28;20821;-57
2021/10/03 05:00:19;;;;;;;19.50;13.50;;;;;;;;;;5002297;28;20372;-57
2021/10/03 05:02:44;;;;;;;21.43;13.10;;;;;;;;;;5002020;28;20379;-57
2021/10/03 05:05:10;;;;;;;19.37;13.73;;;;;;;;;;4997458;28;20273;-57
2021/10/03 05:07:35;;;;;;;22.27;13.63;;;;;;;;;;4999637;28;20038;-59
2021/10/03 05:10:01;;;;;;;21.33;14.98;;;;;;;;;;4992626;28;20277;-57
2021/10/03 05:12:26;;;;;;;21.48;14.05;;;;;;;;;;4997520;28;20041;-60
2021/10/03 05:14:51;;;;;;;18.58;12.63;;;;;;;;;;4994313;28;20100;-58
2021/10/03 05:17:16;;;;;;;20.10;14.10;;;;;;;;;;4993785;28;20022;-57
2021/10/03 05:19:42;;;;;;;22.20;14.07;;;;;;;;;;4997052;28;20292;-57
2021/10/03 05:22:07;;;;;;;20.27;14.50;;;;;;;;;;4994475;28;21059;-58
2021/10/03 05:24:32;;;;;;;21.40;14.02;;;;;;;;;;4999265;28;20257;-59
2021/10/03 05:26:58;;;;;;;19.77;13.50;;;;;;;;;;4997861;28;20029;-59
2021/10/03 05:29:23;;;;;;;21.65;13.88;;;;;;;;;;4997056;28;20276;-58
2021/10/03 05:31:48;;;;;;;22.17;13.90;;;;;;;;;;4996458;28;20072;-63
2021/10/03 05:34:13;;;;;;;22.58;15.02;;;;;;;;;;4996033;28;20042;-57
2021/10/03 05:36:39;;;;;;;22.80;14.83;;;;;;;;;;4998753;28;20022;-59
2021/10/03 05:39:04;;;;;;;25.10;15.80;;;;;;;;;;4995823;28;20276;-58
2021/10/03 05:41:29;;;;;;;22.77;15.60;;;;;;;;;;4997744;28;22757;-58
2021/10/03 05:43:55;;;;;;;24.38;15.70;;;;;;;;;;4999402;28;20441;-58
2021/10/03 05:46:21;;;;;;;21.98;16.35;;;;;;;;;;4999236;28;20038;-57
2021/10/03 05:48:47;;;;;;;22.95;15.38;;;;;;;;;;4998609;28;20080;-59
2021/10/03 05:51:12;;;;;;;21.55;15.13;;;;;;;;;;4997397;28;20068;-58
2021/10/03 05:53:37;;;;;;;22.13;14.85;;;;;;;;;;4996347;28;20026;-57
2021/10/03 05:56:03;;;;;;;26.42;15.73;;;;;;;;;;5003867;28;20121;-58
2021/10/03 05:58:28;;;;;;;22.75;15.25;;;;;;;;;;4994522;28;20695;-57
2021/10/03 06:00:54;;;;;;;20.92;14.20;;;;;;;;;;4997605;28;20543;-57
2021/10/03 06:03:19;;;;;;;20.97;13.90;;;;;;;;;;5001482;28;20030;-58
2021/10/03 06:05:44;;;;;;;22.23;14.68;;;;;;;;;;5013827;28;20280;-59
2021/10/03 06:08:10;;;;;;;22.10;14.57;;;;;;;;;;4996941;28;20037;-58
2021/10/03 06:10:36;;;;;;;24.33;14.48;;;;;;;;;;4999576;28;21069;-58
2021/10/03 06:13:01;;;;;;;24.17;15.20;;;;;;;;;;4999512;28;20112;-58
2021/10/03 06:15:26;;;;;;;22.08;15.25;;;;;;;;;;5004364;28;20103;-59
2021/10/03 06:17:51;;;;;;;25.20;16.30;;;;;;;;;;5000217;28;20022;-58
2021/10/03 06:20:17;;;;;;;23.13;15.73;;;;;;;;;;4996619;28;20280;-57
2021/10/03 06:22:45;;;;;;;24.33;15.87;;;;;;;;;;4998531;28;20267;-56
2021/10/03 06:25:11;;;;;;;23.25;14.82;;;;;;;;;;5005076;28;20264;-58
2021/10/03 06:27:36;;;;;;;23.75;16.65;;;;;;;;;;5003218;28;20457;-58
2021/10/03 06:30:02;;;;;;;22.70;14.83;;;;;;;;;;5002317;28;20029;-57
2021/10/03 06:32:27;;;;;;;23.42;15.40;;;;;;;;;;5004204;28;20261;-57
2021/10/03 06:34:53;;;;;;;21.50;14.15;;;;;;;;;;5000817;28;20027;-57
2021/10/03 06:37:18;;;;;;;21.40;14.93;;;;;;;;;;4997413;28;20686;-57
2021/10/03 06:39:44;;;;;;;21.55;14.60;;;;;;;;;;4999478;28;20052;-57
2021/10/03 06:42:09;;;;;;;23.58;15.50;;;;;;;;;;5001245;28;20018;-57
2021/10/03 06:44:35;;;;;;;21.63;15.15;;;;;;;;;;5000125;28;20116;-57
2021/10/03 06:47:00;;;;;;;22.60;16.00;;;;;;;;;;5004469;28;20047;-58
2021/10/03 06:49:26;;;;;;;22.95;15.40;;;;;;;;;;5001416;28;20075;-58
2021/10/03 06:51:52;;;;;;;24.10;14.90;;;;;;;;;;5001138;28;20034;-57
2021/10/03 06:54:18;;;;;;;21.88;15.13;;;;;;;;;;5001395;28;20104;-59
2021/10/03 06:56:44;;;;;;;21.73;15.13;;;;;;;;;;5003493;28;20022;-57
2021/10/03 06:59:09;;;;;;;22.63;15.15;;;;;;;;;;4987715;28;20034;-58
2021/10/03 07:01:34;;;;;;;22.65;14.32;;;;;;;;;;5000755;28;20025;-58
2021/10/03 07:04:00;;;;;;;23.23;15.02;;;;;;;;;;5001171;28;20054;-61
2021/10/03 07:06:25;;;;;;;22.02;15.52;;;;;;;;;;4991894;28;20061;-57
2021/10/03 07:08:50;;;;;;;23.88;16.08;;;;;;;;;;5002592;28;20088;-58
2021/10/03 07:11:16;;;;;;;23.08;15.77;;;;;;;;;;5002885;28;20026;-57
2021/10/03 07:13:42;;;;;;;25.63;15.98;;;;;;;;;;4998653;28;20047;-57
2021/10/03 07:16:07;;;;;;;25.38;16.15;;;;;;;;;;5003536;28;20032;-56
2021/10/03 07:18:33;;;;;;;23.00;15.73;;;;;;;;;;5001121;28;20512;-57
2021/10/03 07:20:58;;;;;;;23.80;16.10;;;;;;;;;;5004219;28;20623;-57
2021/10/03 07:23:26;;;;;;;23.05;16.20;;;;;;;;;;4998487;28;20030;-56
2021/10/03 07:25:51;;;;;;;22.80;16.48;;;;;;;;;;5001029;28;20086;-56
2021/10/03 07:28:17;;;;;;;22.55;16.00;;;;;;;;;;5000467;28;20117;-56
2021/10/03 07:30:42;;;;;;;22.75;15.93;;;;;;;;;;5004509;28;20109;-56
2021/10/03 07:33:07;;;;;;;20.98;14.65;;;;;;;;;;5000699;28;20041;-57
2021/10/03 07:35:33;;;;;;;20.98;15.13;;;;;;;;;;4998256;28;20029;-56
2021/10/03 07:37:58;;;;;;;20.53;13.97;;;;;;;;;;4935095;28;20057;-56
2021/10/03 07:40:24;;;;;;;22.65;15.23;;;;;;;;;;4991121;28;20276;-56
2021/10/03 07:42:49;;;;;;;20.33;14.48;;;;;;;;;;5000323;28;20013;-57
2021/10/03 07:45:14;;;;;;;23.15;15.65;;;;;;;;;;5000447;28;20126;-56
2021/10/03 07:47:39;;;;;;;19.60;14.60;;;;;;;;;;4999031;28;20021;-56
2021/10/03 07:50:05;;;;;;;23.35;15.95;;;;;;;;;;5002118;28;20283;-56
2021/10/03 07:52:30;;;;;;;20.13;14.10;;;;;;;;;;4985903;28;20529;-57
2021/10/03 07:54:56;;;;;;;18.23;13.48;;;;;;;;;;5000811;28;20281;-57
2021/10/03 07:57:21;;;;;;;19.27;12.77;;;;;;;;;;5009525;28;20518;-57
2021/10/03 07:59:46;;;;;;;18.27;13.52;;;;;;;;;;4998928;28;20018;-58
2021/10/03 08:02:12;;;;;;;17.80;13.50;;;;;;;;;;5007890;28;20018;-58
2021/10/03 08:04:37;;;;;;;17.75;13.18;;;;;;;;;;4997594;28;20022;-57
2021/10/03 08:07:03;;;;;;;18.58;13.10;;;;;;;;;;4995873;28;20030;-55
2021/10/03 08:09:28;;;;;;;17.33;13.05;;;;;;;;;;4941523;28;20125;-60
2021/10/03 08:11:54;;;;;;;16.37;11.93;;;;;;;;;;4997980;28;20021;-57
2021/10/03 08:14:20;;;;;;;17.20;12.50;;;;;;;;;;4996434;28;20279;-57
2021/10/03 08:16:45;;;;;;;15.77;11.48;;;;;;;;;;4991585;28;20034;-57
2021/10/03 08:19:10;;;;;;;17.40;12.07;;;;;;;;;;4993750;28;20025;-57
2021/10/03 08:21:35;;;;;;;18.40;13.48;;;;;;;;;;4990843;28;20021;-57
2021/10/03 08:24:01;;;;;;;17.35;12.20;;;;;;;;;;4978761;28;20144;-56
2021/10/03 08:26:26;;;;;;;16.63;12.07;;;;;;;;;;4993112;28;20054;-56
2021/10/03 08:28:51;;;;;;;17.23;11.70;;;;;;;;;;4991839;28;20022;-56
2021/10/03 08:31:17;;;;;;;15.30;10.20;;;;;;;;;;4990618;28;20288;-57
2021/10/03 08:33:43;;;;;;;12.60;7.95;;;;;;;;;;4996485;28;20014;-57
2021/10/03 08:36:08;;;;;;;10.25;7.07;;;;;;;;;;4999686;28;20021;-57
2021/10/03 08:38:34;;;;;;;10.15;6.13;;;;;;;;;;4996611;28;20018;-56
2021/10/03 08:41:00;;;;;;;10.77;6.95;;;;;;;;;;4998485;28;20099;-57
2021/10/03 08:43:26;;;;;;;10.85;7.15;;;;;;;;;;4998340;28;20482;-57
2021/10/03 08:45:53;;;;;;;12.00;8.45;;;;;;;;;;4998680;28;20520;-57
2021/10/03 08:48:18;;;;;;;13.07;9.40;;;;;;;;;;4999374;28;20022;-58
2021/10/03 08:50:45;;;;;;;13.82;10.13;;;;;;;;;;5005079;28;20103;-60
2021/10/03 08:53:11;;;;;;;12.80;9.68;;;;;;;;;;5000134;28;20032;-58
2021/10/03 08:55:37;;;;;;;13.15;9.98;;;;;;;;;;4998652;28;20485;-60
2021/10/03 08:58:02;;;;;;;10.93;8.55;;;;;;;;;;4990559;28;20103;-61
2021/10/03 09:00:28;;;;;;;14.25;9.93;;;;;;;;;;5009342;28;20030;-59
2021/10/03 09:02:53;;;;;;;11.35;8.52;;;;;;;;;;4994982;28;20018;-59
2021/10/03 09:05:19;;;;;;;10.48;8.32;;;;;;;;;;4985453;28;20025;-58
2021/10/03 09:07:57;;;;;;;17.05;11.70;;;;;;;;;;4927637;28;21444;-60
2021/10/03 09:10:22;;;;;;;13.70;9.07;;;;;;;;;;4991349;28;20099;-58
2021/10/03 09:12:48;;;;;;;14.18;9.55;;;;;;;;;;5001388;28;20017;-58
2021/10/03 09:15:15;;;;;;;13.65;10.25;;;;;;;;;;4999231;28;20028;-58
2021/10/03 09:17:40;;;;;;;15.07;10.00;;;;;;;;;;4998641;28;20032;-58
2021/10/03 09:20:13;;;;;;;15.13;10.55;;;;;;;;;;4999184;28;20021;-59
2021/10/03 09:22:58;;;;;;;14.75;10.32;;;;;;;;;;4995600;28;20072;-58
2021/10/03 09:25:37;;;;;;;16.35;11.07;;;;;;;;;;4939724;28;20032;-58
2021/10/03 09:28:04;;;;;;;16.13;10.15;;;;;;;;;;5002496;28;20014;-56
2021/10/03 09:30:29;;;;;;;14.93;9.63;;;;;;;;;;5000283;28;20036;-57
2021/10/03 09:32:56;;;;;;;15.10;9.23;;;;;;;;;;5001219;28;20794;-59
2021/10/03 09:35:25;;;;;;;14.60;9.90;;;;;;;;;;4996686;28;20476;-57
2021/10/03 09:37:50;;;;;;;13.55;9.65;;;;;;;;;;5011555;28;20113;-59
2021/10/03 09:40:16;;;;;;;13.23;9.30;;;;;;;;;;4991854;28;20034;-56
2021/10/03 09:43:03;;;;;;;13.95;9.63;;;;;;;;;;4997049;28;20604;-57
2021/10/03 09:45:29;;;;;;;13.98;7.93;;;;;;;;;;4992991;28;20030;-57
2021/10/03 09:47:59;;;;;;;13.57;8.23;;;;;;;;;;4992646;28;20921;-58
2021/10/03 09:50:25;;;;;;;10.95;7.50;;;;;;;;;;5008607;28;20097;-56
2021/10/03 09:52:50;;;;;;;15.05;7.97;;;;;;;;;;4999084;28;20030;-59
2021/10/03 09:55:17;;;;;;;11.82;7.95;;;;;;;;;;4998246;28;20422;-59
2021/10/03 09:57:43;;;;;;;13.70;8.65;;;;;;;;;;4992669;28;20036;-58
2021/10/03 10:00:09;;;;;;;12.82;8.20;;;;;;;;;;5001181;28;20034;-58
2021/10/03 10:02:35;;;;;;;13.95;7.80;;;;;;;;;;4992859;28;20520;-53
2021/10/03 10:05:00;;;;;;;14.80;8.70;;;;;;;;;;5001334;28;20025;-56
2021/10/03 10:07:25;;;;;;;14.45;8.45;;;;;;;;;;4996892;28;20065;-58
2021/10/03 10:09:51;;;;;;;12.50;8.87;;;;;;;;;;4988341;28;20079;-58
2021/10/03 10:12:23;;;;;;;12.57;8.35;;;;;;;;;;4997000;28;20297;-59
2021/10/03 10:14:55;;;;;;;13.20;9.18;;;;;;;;;;4999346;28;20024;-57
2021/10/03 10:17:40;;;;;;;13.65;8.80;;;;;;;;;;5001169;28;20033;-58
2021/10/03 10:20:17;;;;;;;16.15;9.10;;;;;;;;;;4999370;28;20022;-57
2021/10/03 10:22:52;;;;;;;14.10;9.13;;;;;;;;;;4999605;28;20022;-58
2021/10/03 10:25:18;;;;;;;12.52;8.63;;;;;;;;;;4936672;28;20040;-56
2021/10/03 10:27:44;;;;;;;12.25;8.80;;;;;;;;;;5000558;28;20488;-55
2021/10/03 10:30:13;;;;;;;13.40;8.70;;;;;;;;;;4997577;28;20029;-56
2021/10/03 10:32:58;;;;;;;12.20;8.52;;;;;;;;;;4993091;28;20032;-55
2021/10/03 10:35:27;;;;;;;14.98;9.15;;;;;;;;;;5001229;28;20105;-56
2021/10/03 10:37:55;;;;;;;12.80;8.40;;;;;;;;;;5004713;28;20026;-56
2021/10/03 10:40:20;;;;;;;16.83;9.25;;;;;;;;;;4984218;28;20060;-56
2021/10/03 10:42:46;;;;;;;14.38;8.90;;;;;;;;;;5006355;28;20537;-56
2021/10/03 10:45:27;;;;;;;11.48;7.93;;;;;;;;;;5000655;28;20060;-56
2021/10/03 10:48:10;;;;;;;12.90;8.88;;;;;;;;;;5000392;28;20058;-54
2021/10/03 10:50:38;;;;;;;12.48;9.10;;;;;;;;;;4998761;28;20023;-56
2021/10/03 10:53:20;;;;;;;14.48;8.98;;;;;;;;;;5013533;28;20018;-56
2021/10/03 10:56:05;;;;;;;13.68;9.10;;;;;;;;;;4978724;28;20133;-55
2021/10/03 10:58:31;;;;;;;14.07;9.25;;;;;;;;;;5004197;28;20021;-56
2021/10/03 11:01:00;;;;;;;12.90;9.10;;;;;;;;;;5003640;28;20760;-56
2021/10/03 11:03:41;;;;;;;12.43;8.73;;;;;;;;;;5004411;28;20026;-56
2021/10/03 11:06:06;;;;;;;15.43;8.32;;;;;;;;;;4999605;28;20101;-56
2021/10/03 11:08:31;;;;;;;11.90;8.40;;;;;;;;;;5000569;28;20125;-58
2021/10/03 11:10:57;;;;;;;14.00;9.20;;;;;;;;;;5004283;28;20322;-56
2021/10/03 11:13:37;;;;;;;14.18;9.18;;;;;;;;;;5000913;28;20623;-57
2021/10/03 11:16:21;;;;;;;13.90;9.23;;;;;;;;;;5003128;28;20015;-56
2021/10/03 11:18:49;;;;;;;13.63;8.90;;;;;;;;;;5001973;28;20525;-57
2021/10/03 11:21:14;;;;;;;12.15;8.32;;;;;;;;;;4999814;28;20018;-56
2021/10/03 11:23:42;;;;;;;16.03;9.87;;;;;;;;;;5003674;28;20456;-56
2021/10/03 11:26:07;;;;;;;12.30;8.80;;;;;;;;;;5003883;28;20743;-56
2021/10/03 11:28:52;;;;;;;14.23;9.07;;;;;;;;;;4999466;28;20041;-57
2021/10/03 11:31:33;;;;;;;12.95;8.45;;;;;;;;;;4999155;28;20273;-56
2021/10/03 11:33:59;;;;;;;13.40;8.90;;;;;;;;;;4991157;28;20017;-56
2021/10/03 11:36:24;;;;;;;12.43;8.90;;;;;;;;;;4999931;28;20410;-56
2021/10/03 11:38:49;;;;;;;14.05;8.30;;;;;;;;;;5001936;28;20018;-57
2021/10/03 11:41:15;;;;;;;13.50;8.67;;;;;;;;;;5004090;28;20084;-57
2021/10/03 11:43:40;;;;;;;14.90;9.07;;;;;;;;;;4999240;28;20261;-55
2021/10/03 11:46:05;;;;;;;15.37;8.80;;;;;;;;;;5000673;28;20487;-56
2021/10/03 11:48:31;;;;;;;12.80;8.38;;;;;;;;;;5014725;28;20284;-57
2021/10/03 11:50:56;;;;;;;13.82;8.80;;;;;;;;;;5001030;28;20025;-56
2021/10/03 11:53:25;;;;;;;12.67;8.47;;;;;;;;;;5000194;28;20367;-54
2021/10/03 11:55:51;;;;;;;13.05;8.07;;;;;;;;;;5000825;28;20257;-56
2021/10/03 11:58:18;;;;;;;13.77;8.65;;;;;;;;;;5001010;28;20044;-56
2021/10/03 12:00:54;;;;;;;12.45;8.52;;;;;;;;;;5000613;28;20021;-56
2021/10/03 12:03:20;;;;;;;12.02;7.95;;;;;;;;;;5006563;28;20592;-56
2021/10/03 12:05:46;;;;;;;10.85;7.65;;;;;;;;;;5003987;28;20582;-56
2021/10/03 12:08:12;;;;;;;11.10;7.35;;;;;;;;;;4994678;28;20021;-56
2021/10/03 12:10:41;;;;;;;10.80;7.53;;;;;;;;;;5010781;28;20094;-57
2021/10/03 12:13:24;;;;;;;10.55;7.15;;;;;;;;;;5001704;28;20013;-56
2021/10/03 12:15:51;;;;;;;12.38;7.97;;;;;;;;;;4998753;28;20025;-55
2021/10/03 12:18:29;;;;;;;13.07;7.63;;;;;;;;;;5003217;28;20052;-57
2021/10/03 12:20:57;;;;;;;12.88;8.00;;;;;;;;;;5001572;28;20522;-56
2021/10/03 12:23:38;;;;;;;11.45;7.90;;;;;;;;;;5010286;28;20465;-55
2021/10/03 12:26:11;;;;;;;11.00;7.57;;;;;;;;;;5006190;28;20083;-57
2021/10/03 12:28:56;;;;;;;12.35;7.45;;;;;;;;;;5021460;28;20037;-56
2021/10/03 12:31:41;;;;;;;10.30;7.22;;;;;;;;;;5004220;28;20034;-57
2021/10/03 12:34:06;;;;;;;10.77;7.50;;;;;;;;;;4997715;28;20022;-57
2021/10/03 12:36:33;;;;;;;11.27;7.80;;;;;;;;;;5007845;28;20027;-56
2021/10/03 12:38:58;;;;;;;11.05;7.80;;;;;;;;;;5009895;28;20099;-55
2021/10/03 12:41:25;;;;;;;9.95;7.07;;;;;;;;;;5011166;28;20049;-57
2021/10/03 12:43:51;;;;;;;11.52;7.53;;;;;;;;;;4998809;28;20017;-54
2021/10/03 12:46:16;;;;;;;11.07;7.05;;;;;;;;;;5012402;28;20036;-56
2021/10/03 12:48:41;;;;;;;11.65;7.40;;;;;;;;;;4998268;28;20036;-56
2021/10/03 12:51:07;;;;;;;10.57;6.80;;;;;;;;;;5009411;28;20049;-56
2021/10/03 12:53:32;;;;;;;8.53;5.40;;;;;;;;;;5009189;28;20158;-57
2021/10/03 12:55:57;;;;;;;8.97;5.87;;;;;;;;;;5002435;28;20427;-56
2021/10/03 12:58:22;;;;;;;9.30;5.60;;;;;;;;;;5001361;28;20808;-56
2021/10/03 13:00:48;;;;;;;8.73;5.77;;;;;;;;;;5000672;28;20284;-57
2021/10/03 13:03:13;;;;;;;8.68;5.32;;;;;;;;;;5005235;28;20023;-56
2021/10/03 13:05:40;;;;;;;8.07;4.93;;;;;;;;;;5005119;28;20033;-56
2021/10/03 13:08:05;;;;;;;7.80;5.10;;;;;;;;;;5002826;28;20371;-56
2021/10/03 13:10:30;;;;;;;8.77;5.25;;;;;;;;;;5012183;28;21809;-55
2021/10/03 13:12:56;;;;;;;8.68;5.70;;;;;;;;;;5006343;28;20034;-56
2021/10/03 13:15:21;;;;;;;10.25;6.10;;;;;;;;;;4997948;28;20121;-56
2021/10/03 13:17:48;;;;;;;10.07;6.57;;;;;;;;;;5003394;28;20552;-56
2021/10/03 13:20:13;;;;;;;9.88;6.22;;;;;;;;;;5018561;28;20271;-56
2021/10/03 13:22:39;;;;;;;11.15;6.43;;;;;;;;;;4996287;28;20025;-56
2021/10/03 13:25:05;;;;;;;10.23;6.47;;;;;;;;;;5008461;28;20542;-56
2021/10/03 13:27:30;;;;;;;9.98;6.40;;;;;;;;;;4997752;28;22347;-56
2021/10/03 13:29:55;;;;;;;8.88;6.53;;;;;;;;;;5009496;28;20022;-56
2021/10/03 13:32:21;;;;;;;11.30;6.63;;;;;;;;;;5011753;28;20031;-57
2021/10/03 13:34:46;;;;;;;9.32;6.45;;;;;;;;;;5011951;28;20264;-56
2021/10/03 13:37:11;;;;;;;9.70;6.50;;;;;;;;;;4994163;28;20026;-56
2021/10/03 13:39:36;;;;;;;11.00;6.90;;;;;;;;;;4997588;28;20137;-57
2021/10/03 13:42:01;;;;;;;9.83;6.70;;;;;;;;;;5008782;28;20647;-55
2021/10/03 13:44:27;;;;;;;9.70;6.85;;;;;;;;;;5012284;28;20256;-56
2021/10/03 13:46:52;;;;;;;9.80;6.70;;;;;;;;;;5008339;28;20010;-56
2021/10/03 13:49:17;;;;;;;11.27;6.85;;;;;;;;;;4998451;28;20430;-56
2021/10/03 13:51:42;;;;;;;11.03;6.23;;;;;;;;;;5007952;28;20050;-57
2021/10/03 13:54:08;;;;;;;9.83;6.63;;;;;;;;;;5007708;28;20241;-56
2021/10/03 13:56:33;;;;;;;9.65;6.63;;;;;;;;;;5001047;28;20747;-56
2021/10/03 13:58:58;;;;;;;12.30;7.80;;;;;;;;;;4999537;28;20018;-55
2021/10/03 14:01:23;;;;;;;10.83;6.70;;;;;;;;;;4996920;28;20026;-56
2021/10/03 14:03:49;;;;;;;10.27;6.67;;;;;;;;;;5003735;28;20724;-56
2021/10/03 14:06:14;;;;;;;12.33;6.83;;;;;;;;;;5001240;28;20286;-56
2021/10/03 14:08:39;;;;;;;10.80;7.43;;;;;;;;;;5008071;28;20042;-56
2021/10/03 14:11:05;;;;;;;11.40;7.33;;;;;;;;;;5003666;28;20033;-55
2021/10/03 14:13:30;;;;;;;10.27;7.22;;;;;;;;;;4998159;28;20845;-56
2021/10/03 14:15:56;;;;;;;11.82;7.28;;;;;;;;;;5014498;28;20653;-57
2021/10/03 14:18:21;;;;;;;11.23;7.43;;;;;;;;;;4996026;28;20030;-56
2021/10/03 14:20:46;;;;;;;9.90;6.70;;;;;;;;;;5007004;28;20018;-56